sensor_id;sensor_type;location;lat;lon;timestamp;P1;durP1;ratioP1;P2;durP2;ratioP2
25449;SDS011;13371;52.080;5.624;2023-08-30T00:00:38;10.38;;;6.60;;
25449;SDS011;13371;52.080;5.624;2023-08-30T00:03:04;11.75;;;6.25;;
25449;SDS011;13371;52.080;5.624;2023-08-30T00:05:31;11.77;;;7.70;;
25449;SDS011;13371;52.080;5.624;2023-08-30T00:07:56;9.40;;;6.28;;
25449;SDS011;13371;52.080;5.624;2023-08-30T00:10:22;8.65;;;6.32;;
25449;SDS011;13371;52.080;5.624;2023-08-30T00:12:48;11.73;;;6.57;;
25449;SDS011;13371;52.080;5.624;2023-08-30T00:15:14;14.38;;;7.05;;
25449;SDS011;13371;52.080;5.624;2023-08-30T00:17:39;12.25;;;7.00;;
25449;SDS011;13371;52.080;5.624;2023-08-30T00:20:05;10.05;;;7.00;;
25449;SDS011;13371;52.080;5.624;2023-08-30T00:22:31;12.07;;;6.72;;
25449;SDS011;13371;52.080;5.624;2023-08-30T00:24:57;9.73;;;6.65;;
25449;SDS011;13371;52.080;5.624;2023-08-30T00:27:23;9.50;;;6.93;;
25449;SDS011;13371;52.080;5.624;2023-08-30T00:29:48;9.40;;;5.95;;
25449;SDS011;13371;52.080;5.624;2023-08-30T00:32:14;8.95;;;5.85;;
25449;SDS011;13371;52.080;5.624;2023-08-30T00:34:40;10.77;;;6.95;;
25449;SDS011;13371;52.080;5.624;2023-08-30T00:37:05;9.88;;;6.47;;
25449;SDS011;13371;52.080;5.624;2023-08-30T00:39:31;10.40;;;6.57;;
25449;SDS011;13371;52.080;5.624;2023-08-30T00:41:56;9.73;;;6.40;;
25449;SDS011;13371;52.080;5.624;2023-08-30T00:44:22;12.43;;;6.53;;
25449;SDS011;13371;52.080;5.624;2023-08-30T00:46:48;11.45;;;7.18;;
25449;SDS011;13371;52.080;5.624;2023-08-30T00:49:13;10.50;;;7.13;;
25449;SDS011;13371;52.080;5.624;2023-08-30T00:51:39;10.70;;;6.63;;
25449;SDS011;13371;52.080;5.624;2023-08-30T00:54:05;9.40;;;6.60;;
25449;SDS011;13371;52.080;5.624;2023-08-30T00:56:32;11.13;;;6.60;;
25449;SDS011;13371;52.080;5.624;2023-08-30T00:58:58;9.27;;;6.57;;
25449;SDS011;13371;52.080;5.624;2023-08-30T01:01:24;10.93;;;7.45;;
25449;SDS011;13371;52.080;5.624;2023-08-30T01:03:50;11.85;;;7.28;;
25449;SDS011;13371;52.080;5.624;2023-08-30T01:06:16;8.77;;;6.68;;
25449;SDS011;13371;52.080;5.624;2023-08-30T01:08:42;10.50;;;6.50;;
25449;SDS011;13371;52.080;5.624;2023-08-30T01:11:11;10.00;;;7.00;;
25449;SDS011;13371;52.080;5.624;2023-08-30T01:16:33;10.40;;;6.68;;
25449;SDS011;13371;52.080;5.624;2023-08-30T01:19:02;11.32;;;7.05;;
25449;SDS011;13371;52.080;5.624;2023-08-30T01:21:50;11.55;;;6.95;;
25449;SDS011;13371;52.080;5.624;2023-08-30T01:24:30;11.43;;;7.20;;
25449;SDS011;13371;52.080;5.624;2023-08-30T01:27:10;12.57;;;7.30;;
25449;SDS011;13371;52.080;5.624;2023-08-30T01:29:40;10.75;;;7.07;;
25449;SDS011;13371;52.080;5.624;2023-08-30T01:32:09;11.50;;;7.80;;
25449;SDS011;13371;52.080;5.624;2023-08-30T01:34:36;13.50;;;7.70;;
25449;SDS011;13371;52.080;5.624;2023-08-30T01:37:04;13.45;;;8.65;;
25449;SDS011;13371;52.080;5.624;2023-08-30T01:39:33;11.15;;;7.50;;
25449;SDS011;13371;52.080;5.624;2023-08-30T01:42:01;10.77;;;7.85;;
25449;SDS011;13371;52.080;5.624;2023-08-30T01:44:28;12.20;;;7.68;;
25449;SDS011;13371;52.080;5.624;2023-08-30T01:46:54;10.85;;;7.80;;
25449;SDS011;13371;52.080;5.624;2023-08-30T01:49:21;12.82;;;7.85;;
25449;SDS011;13371;52.080;5.624;2023-08-30T01:51:48;14.20;;;8.65;;
25449;SDS011;13371;52.080;5.624;2023-08-30T01:54:16;15.10;;;8.10;;
25449;SDS011;13371;52.080;5.624;2023-08-30T01:56:43;14.80;;;7.80;;
25449;SDS011;13371;52.080;5.624;2023-08-30T01:59:10;9.15;;;7.20;;
25449;SDS011;13371;52.080;5.624;2023-08-30T02:01:36;12.57;;;7.95;;
25449;SDS011;13371;52.080;5.624;2023-08-30T02:04:02;10.60;;;8.20;;
25449;SDS011;13371;52.080;5.624;2023-08-30T02:06:30;12.70;;;8.30;;
25449;SDS011;13371;52.080;5.624;2023-08-30T02:09:19;12.60;;;8.13;;
25449;SDS011;13371;52.080;5.624;2023-08-30T02:11:49;11.20;;;7.63;;
25449;SDS011;13371;52.080;5.624;2023-08-30T02:14:18;13.27;;;8.10;;
25449;SDS011;13371;52.080;5.624;2023-08-30T02:16:45;15.68;;;8.27;;
25449;SDS011;13371;52.080;5.624;2023-08-30T02:19:12;11.35;;;8.18;;
25449;SDS011;13371;52.080;5.624;2023-08-30T02:21:41;13.05;;;8.32;;
25449;SDS011;13371;52.080;5.624;2023-08-30T02:24:07;14.63;;;8.43;;
25449;SDS011;13371;52.080;5.624;2023-08-30T02:26:33;11.98;;;7.93;;
25449;SDS011;13371;52.080;5.624;2023-08-30T02:28:59;10.30;;;7.43;;
25449;SDS011;13371;52.080;5.624;2023-08-30T02:31:24;12.20;;;7.50;;
25449;SDS011;13371;52.080;5.624;2023-08-30T02:33:50;11.20;;;8.30;;
25449;SDS011;13371;52.080;5.624;2023-08-30T02:36:16;10.95;;;7.53;;
25449;SDS011;13371;52.080;5.624;2023-08-30T02:38:41;13.93;;;7.93;;
25449;SDS011;13371;52.080;5.624;2023-08-30T02:41:07;12.38;;;8.02;;
25449;SDS011;13371;52.080;5.624;2023-08-30T02:43:32;12.20;;;8.48;;
25449;SDS011;13371;52.080;5.624;2023-08-30T02:45:58;21.73;;;8.90;;
25449;SDS011;13371;52.080;5.624;2023-08-30T02:48:23;13.07;;;8.25;;
25449;SDS011;13371;52.080;5.624;2023-08-30T02:50:49;11.20;;;7.68;;
25449;SDS011;13371;52.080;5.624;2023-08-30T02:53:15;18.88;;;9.25;;
25449;SDS011;13371;52.080;5.624;2023-08-30T02:55:40;13.45;;;8.52;;
25449;SDS011;13371;52.080;5.624;2023-08-30T02:58:06;14.82;;;9.38;;
25449;SDS011;13371;52.080;5.624;2023-08-30T03:00:31;14.23;;;8.77;;
25449;SDS011;13371;52.080;5.624;2023-08-30T03:02:59;13.50;;;8.68;;
25449;SDS011;13371;52.080;5.624;2023-08-30T03:05:24;12.20;;;8.90;;
25449;SDS011;13371;52.080;5.624;2023-08-30T03:07:52;16.10;;;9.82;;
25449;SDS011;13371;52.080;5.624;2023-08-30T03:10:18;12.20;;;8.18;;
25449;SDS011;13371;52.080;5.624;2023-08-30T03:12:44;14.43;;;9.68;;
25449;SDS011;13371;52.080;5.624;2023-08-30T03:15:09;13.90;;;9.27;;
25449;SDS011;13371;52.080;5.624;2023-08-30T03:17:35;13.95;;;8.95;;
25449;SDS011;13371;52.080;5.624;2023-08-30T03:20:01;13.82;;;9.02;;
25449;SDS011;13371;52.080;5.624;2023-08-30T03:22:28;14.15;;;9.07;;
25449;SDS011;13371;52.080;5.624;2023-08-30T03:24:55;12.88;;;9.35;;
25449;SDS011;13371;52.080;5.624;2023-08-30T03:27:21;14.68;;;9.65;;
25449;SDS011;13371;52.080;5.624;2023-08-30T03:29:46;13.98;;;9.38;;
25449;SDS011;13371;52.080;5.624;2023-08-30T03:32:16;19.30;;;10.15;;
25449;SDS011;13371;52.080;5.624;2023-08-30T03:34:46;14.43;;;8.48;;
25449;SDS011;13371;52.080;5.624;2023-08-30T03:37:15;14.18;;;8.82;;
25449;SDS011;13371;52.080;5.624;2023-08-30T03:39:41;14.25;;;9.13;;
25449;SDS011;13371;52.080;5.624;2023-08-30T03:42:07;13.32;;;8.27;;
25449;SDS011;13371;52.080;5.624;2023-08-30T03:44:33;18.50;;;9.40;;
25449;SDS011;13371;52.080;5.624;2023-08-30T03:46:59;15.90;;;8.82;;
25449;SDS011;13371;52.080;5.624;2023-08-30T03:49:24;16.92;;;9.38;;
25449;SDS011;13371;52.080;5.624;2023-08-30T03:51:50;15.63;;;9.07;;
25449;SDS011;13371;52.080;5.624;2023-08-30T03:54:15;14.35;;;8.90;;
25449;SDS011;13371;52.080;5.624;2023-08-30T03:56:44;17.00;;;9.73;;
25449;SDS011;13371;52.080;5.624;2023-08-30T03:59:11;13.25;;;9.10;;
25449;SDS011;13371;52.080;5.624;2023-08-30T04:01:36;14.25;;;9.38;;
25449;SDS011;13371;52.080;5.624;2023-08-30T04:04:02;11.98;;;8.70;;
25449;SDS011;13371;52.080;5.624;2023-08-30T04:06:28;14.52;;;8.60;;
25449;SDS011;13371;52.080;5.624;2023-08-30T04:08:54;14.45;;;9.20;;
25449;SDS011;13371;52.080;5.624;2023-08-30T04:11:19;14.90;;;9.18;;
25449;SDS011;13371;52.080;5.624;2023-08-30T04:13:45;15.30;;;8.38;;
25449;SDS011;13371;52.080;5.624;2023-08-30T04:16:10;15.75;;;9.45;;
25449;SDS011;13371;52.080;5.624;2023-08-30T04:18:36;14.45;;;8.98;;
25449;SDS011;13371;52.080;5.624;2023-08-30T04:21:02;12.70;;;8.52;;
25449;SDS011;13371;52.080;5.624;2023-08-30T04:23:30;17.08;;;9.32;;
25449;SDS011;13371;52.080;5.624;2023-08-30T04:25:56;14.30;;;8.38;;
25449;SDS011;13371;52.080;5.624;2023-08-30T04:28:21;15.55;;;8.93;;
25449;SDS011;13371;52.080;5.624;2023-08-30T04:30:47;16.02;;;8.82;;
25449;SDS011;13371;52.080;5.624;2023-08-30T04:33:13;15.02;;;9.20;;
25449;SDS011;13371;52.080;5.624;2023-08-30T04:35:39;16.38;;;8.75;;
25449;SDS011;13371;52.080;5.624;2023-08-30T04:38:04;14.65;;;8.77;;
25449;SDS011;13371;52.080;5.624;2023-08-30T04:40:31;16.00;;;8.93;;
25449;SDS011;13371;52.080;5.624;2023-08-30T04:43:00;14.50;;;8.70;;
25449;SDS011;13371;52.080;5.624;2023-08-30T04:45:26;13.98;;;8.82;;
25449;SDS011;13371;52.080;5.624;2023-08-30T04:47:52;15.00;;;8.82;;
25449;SDS011;13371;52.080;5.624;2023-08-30T04:50:18;14.88;;;8.70;;
25449;SDS011;13371;52.080;5.624;2023-08-30T04:52:43;14.80;;;8.85;;
25449;SDS011;13371;52.080;5.624;2023-08-30T04:55:09;14.10;;;9.13;;
25449;SDS011;13371;52.080;5.624;2023-08-30T04:57:35;15.93;;;9.02;;
25449;SDS011;13371;52.080;5.624;2023-08-30T05:00:00;16.30;;;9.05;;
25449;SDS011;13371;52.080;5.624;2023-08-30T05:02:29;15.18;;;10.00;;
25449;SDS011;13371;52.080;5.624;2023-08-30T05:04:55;16.17;;;9.93;;
25449;SDS011;13371;52.080;5.624;2023-08-30T05:07:21;13.60;;;8.18;;
25449;SDS011;13371;52.080;5.624;2023-08-30T05:09:46;18.80;;;9.38;;
25449;SDS011;13371;52.080;5.624;2023-08-30T05:12:12;13.50;;;8.40;;
25449;SDS011;13371;52.080;5.624;2023-08-30T05:14:38;13.85;;;9.55;;
25449;SDS011;13371;52.080;5.624;2023-08-30T05:17:05;15.15;;;8.95;;
25449;SDS011;13371;52.080;5.624;2023-08-30T05:19:31;16.38;;;8.98;;
25449;SDS011;13371;52.080;5.624;2023-08-30T05:21:57;18.67;;;9.10;;
25449;SDS011;13371;52.080;5.624;2023-08-30T05:24:22;14.63;;;9.20;;
25449;SDS011;13371;52.080;5.624;2023-08-30T05:26:48;14.90;;;8.82;;
25449;SDS011;13371;52.080;5.624;2023-08-30T05:29:14;18.50;;;10.38;;
25449;SDS011;13371;52.080;5.624;2023-08-30T05:31:40;14.32;;;8.68;;
25449;SDS011;13371;52.080;5.624;2023-08-30T05:34:06;15.55;;;9.10;;
25449;SDS011;13371;52.080;5.624;2023-08-30T05:36:32;15.05;;;9.35;;
25449;SDS011;13371;52.080;5.624;2023-08-30T05:38:58;18.15;;;8.82;;
25449;SDS011;13371;52.080;5.624;2023-08-30T05:41:23;16.60;;;9.35;;
25449;SDS011;13371;52.080;5.624;2023-08-30T05:43:49;16.52;;;8.95;;
25449;SDS011;13371;52.080;5.624;2023-08-30T05:46:16;17.77;;;9.98;;
25449;SDS011;13371;52.080;5.624;2023-08-30T05:48:42;14.93;;;9.23;;
25449;SDS011;13371;52.080;5.624;2023-08-30T05:51:08;15.35;;;9.27;;
25449;SDS011;13371;52.080;5.624;2023-08-30T05:53:34;15.65;;;10.00;;
25449;SDS011;13371;52.080;5.624;2023-08-30T05:55:59;15.88;;;9.13;;
25449;SDS011;13371;52.080;5.624;2023-08-30T05:58:25;18.85;;;9.60;;
25449;SDS011;13371;52.080;5.624;2023-08-30T06:00:50;16.17;;;9.38;;
25449;SDS011;13371;52.080;5.624;2023-08-30T06:03:16;18.08;;;10.00;;
25449;SDS011;13371;52.080;5.624;2023-08-30T06:05:42;19.95;;;10.82;;
25449;SDS011;13371;52.080;5.624;2023-08-30T06:08:10;13.90;;;9.23;;
25449;SDS011;13371;52.080;5.624;2023-08-30T06:10:37;16.08;;;10.25;;
25449;SDS011;13371;52.080;5.624;2023-08-30T06:13:03;15.40;;;10.05;;
25449;SDS011;13371;52.080;5.624;2023-08-30T06:15:29;14.55;;;9.38;;
25449;SDS011;13371;52.080;5.624;2023-08-30T06:17:55;15.10;;;9.57;;
25449;SDS011;13371;52.080;5.624;2023-08-30T06:20:20;12.57;;;8.77;;
25449;SDS011;13371;52.080;5.624;2023-08-30T06:22:46;15.23;;;8.90;;
25449;SDS011;13371;52.080;5.624;2023-08-30T06:25:11;14.48;;;9.60;;
25449;SDS011;13371;52.080;5.624;2023-08-30T06:27:41;14.52;;;8.77;;
25449;SDS011;13371;52.080;5.624;2023-08-30T06:30:08;18.75;;;10.05;;
25449;SDS011;13371;52.080;5.624;2023-08-30T06:32:37;20.95;;;9.27;;
25449;SDS011;13371;52.080;5.624;2023-08-30T06:35:03;16.25;;;8.95;;
25449;SDS011;13371;52.080;5.624;2023-08-30T06:37:29;13.85;;;9.10;;
25449;SDS011;13371;52.080;5.624;2023-08-30T06:39:54;16.83;;;9.88;;
25449;SDS011;13371;52.080;5.624;2023-08-30T06:42:20;14.57;;;9.30;;
25449;SDS011;13371;52.080;5.624;2023-08-30T06:44:46;15.13;;;10.00;;
25449;SDS011;13371;52.080;5.624;2023-08-30T06:47:11;16.33;;;8.50;;
25449;SDS011;13371;52.080;5.624;2023-08-30T06:49:37;14.93;;;10.02;;
25449;SDS011;13371;52.080;5.624;2023-08-30T06:52:02;12.82;;;9.30;;
25449;SDS011;13371;52.080;5.624;2023-08-30T06:54:32;14.98;;;9.07;;
25449;SDS011;13371;52.080;5.624;2023-08-30T06:56:59;14.20;;;9.02;;
25449;SDS011;13371;52.080;5.624;2023-08-30T06:59:28;15.88;;;9.38;;
25449;SDS011;13371;52.080;5.624;2023-08-30T07:01:55;16.67;;;9.32;;
25449;SDS011;13371;52.080;5.624;2023-08-30T07:04:20;19.45;;;9.88;;
25449;SDS011;13371;52.080;5.624;2023-08-30T07:06:46;18.30;;;9.70;;
25449;SDS011;13371;52.080;5.624;2023-08-30T07:09:12;14.60;;;8.82;;
25449;SDS011;13371;52.080;5.624;2023-08-30T07:11:37;13.18;;;8.85;;
25449;SDS011;13371;52.080;5.624;2023-08-30T07:14:03;12.77;;;9.07;;
25449;SDS011;13371;52.080;5.624;2023-08-30T07:16:29;19.00;;;10.15;;
25449;SDS011;13371;52.080;5.624;2023-08-30T07:18:58;17.35;;;10.27;;
25449;SDS011;13371;52.080;5.624;2023-08-30T07:21:25;16.17;;;9.10;;
25449;SDS011;13371;52.080;5.624;2023-08-30T07:23:50;15.95;;;10.02;;
25449;SDS011;13371;52.080;5.624;2023-08-30T07:26:16;16.63;;;9.85;;
25449;SDS011;13371;52.080;5.624;2023-08-30T07:28:41;15.77;;;10.00;;
25449;SDS011;13371;52.080;5.624;2023-08-30T07:31:07;15.10;;;9.32;;
25449;SDS011;13371;52.080;5.624;2023-08-30T07:33:33;18.27;;;9.98;;
25449;SDS011;13371;52.080;5.624;2023-08-30T07:35:59;18.30;;;11.20;;
25449;SDS011;13371;52.080;5.624;2023-08-30T07:38:24;16.40;;;9.82;;
25449;SDS011;13371;52.080;5.624;2023-08-30T07:40:50;17.20;;;10.70;;
25449;SDS011;13371;52.080;5.624;2023-08-30T07:43:15;16.15;;;11.05;;
25449;SDS011;13371;52.080;5.624;2023-08-30T07:45:41;13.55;;;9.63;;
25449;SDS011;13371;52.080;5.624;2023-08-30T07:48:07;18.33;;;10.95;;
25449;SDS011;13371;52.080;5.624;2023-08-30T07:50:32;20.85;;;11.38;;
25449;SDS011;13371;52.080;5.624;2023-08-30T07:52:58;16.67;;;11.68;;
25449;SDS011;13371;52.080;5.624;2023-08-30T07:55:23;14.90;;;9.38;;
25449;SDS011;13371;52.080;5.624;2023-08-30T07:57:49;17.77;;;10.20;;
25449;SDS011;13371;52.080;5.624;2023-08-30T08:00:15;19.33;;;11.25;;
25449;SDS011;13371;52.080;5.624;2023-08-30T08:02:40;17.33;;;10.05;;
25449;SDS011;13371;52.080;5.624;2023-08-30T08:05:06;20.35;;;10.60;;
25449;SDS011;13371;52.080;5.624;2023-08-30T08:07:32;16.80;;;10.00;;
25449;SDS011;13371;52.080;5.624;2023-08-30T08:09:58;15.25;;;9.95;;
25449;SDS011;13371;52.080;5.624;2023-08-30T08:12:23;14.32;;;8.98;;
25449;SDS011;13371;52.080;5.624;2023-08-30T08:14:49;15.80;;;9.10;;
25449;SDS011;13371;52.080;5.624;2023-08-30T08:17:14;16.23;;;9.77;;
25449;SDS011;13371;52.080;5.624;2023-08-30T08:19:40;13.93;;;8.98;;
25449;SDS011;13371;52.080;5.624;2023-08-30T08:22:07;17.73;;;8.35;;
25449;SDS011;13371;52.080;5.624;2023-08-30T08:24:33;13.85;;;8.63;;
25449;SDS011;13371;52.080;5.624;2023-08-30T08:26:59;16.13;;;8.38;;
25449;SDS011;13371;52.080;5.624;2023-08-30T08:29:26;13.85;;;8.50;;
25449;SDS011;13371;52.080;5.624;2023-08-30T08:31:52;16.08;;;8.82;;
25449;SDS011;13371;52.080;5.624;2023-08-30T08:34:18;16.05;;;8.60;;
25449;SDS011;13371;52.080;5.624;2023-08-30T08:36:44;13.20;;;8.60;;
25449;SDS011;13371;52.080;5.624;2023-08-30T08:39:09;15.38;;;9.05;;
25449;SDS011;13371;52.080;5.624;2023-08-30T08:41:39;14.73;;;8.43;;
25449;SDS011;13371;52.080;5.624;2023-08-30T08:44:07;13.00;;;8.07;;
25449;SDS011;13371;52.080;5.624;2023-08-30T08:46:34;16.25;;;9.15;;
25449;SDS011;13371;52.080;5.624;2023-08-30T08:49:14;15.27;;;8.68;;
25449;SDS011;13371;52.080;5.624;2023-08-30T08:51:41;19.52;;;9.18;;
25449;SDS011;13371;52.080;5.624;2023-08-30T08:54:08;16.60;;;8.88;;
25449;SDS011;13371;52.080;5.624;2023-08-30T08:56:34;15.90;;;9.48;;
25449;SDS011;13371;52.080;5.624;2023-08-30T08:59:01;14.98;;;8.90;;
25449;SDS011;13371;52.080;5.624;2023-08-30T09:01:27;15.98;;;8.98;;
25449;SDS011;13371;52.080;5.624;2023-08-30T09:03:53;18.38;;;9.23;;
25449;SDS011;13371;52.080;5.624;2023-08-30T09:06:19;15.50;;;9.65;;
25449;SDS011;13371;52.080;5.624;2023-08-30T09:08:46;13.95;;;8.93;;
25449;SDS011;13371;52.080;5.624;2023-08-30T09:11:11;17.02;;;9.93;;
25449;SDS011;13371;52.080;5.624;2023-08-30T09:13:37;14.82;;;9.68;;
25449;SDS011;13371;52.080;5.624;2023-08-30T09:16:03;14.45;;;8.90;;
25449;SDS011;13371;52.080;5.624;2023-08-30T09:18:37;15.85;;;10.15;;
25449;SDS011;13371;52.080;5.624;2023-08-30T09:23:32;18.48;;;9.85;;
25449;SDS011;13371;52.080;5.624;2023-08-30T09:25:59;17.33;;;10.27;;
25449;SDS011;13371;52.080;5.624;2023-08-30T09:28:25;14.52;;;9.77;;
25449;SDS011;13371;52.080;5.624;2023-08-30T09:30:52;15.55;;;9.70;;
25449;SDS011;13371;52.080;5.624;2023-08-30T09:33:30;19.52;;;10.10;;
25449;SDS011;13371;52.080;5.624;2023-08-30T09:35:57;14.90;;;9.88;;
25449;SDS011;13371;52.080;5.624;2023-08-30T09:38:24;18.77;;;10.15;;
25449;SDS011;13371;52.080;5.624;2023-08-30T09:40:50;14.55;;;9.88;;
25449;SDS011;13371;52.080;5.624;2023-08-30T09:43:19;18.08;;;10.07;;
25449;SDS011;13371;52.080;5.624;2023-08-30T09:45:49;14.07;;;9.53;;
25449;SDS011;13371;52.080;5.624;2023-08-30T09:48:16;17.08;;;11.00;;
25449;SDS011;13371;52.080;5.624;2023-08-30T09:50:47;15.88;;;10.23;;
25449;SDS011;13371;52.080;5.624;2023-08-30T09:53:18;13.40;;;9.90;;
25449;SDS011;13371;52.080;5.624;2023-08-30T09:55:46;17.67;;;9.93;;
25449;SDS011;13371;52.080;5.624;2023-08-30T09:58:14;14.75;;;9.35;;
25449;SDS011;13371;52.080;5.624;2023-08-30T10:00:40;16.83;;;9.30;;
25449;SDS011;13371;52.080;5.624;2023-08-30T10:03:07;17.08;;;10.15;;
25449;SDS011;13371;52.080;5.624;2023-08-30T10:05:33;13.02;;;9.00;;
25449;SDS011;13371;52.080;5.624;2023-08-30T10:08:00;13.27;;;9.20;;
25449;SDS011;13371;52.080;5.624;2023-08-30T10:10:27;16.23;;;10.50;;
25449;SDS011;13371;52.080;5.624;2023-08-30T10:12:55;14.05;;;10.50;;
25449;SDS011;13371;52.080;5.624;2023-08-30T10:15:22;16.20;;;10.85;;
25449;SDS011;13371;52.080;5.624;2023-08-30T10:17:51;14.48;;;10.40;;
25449;SDS011;13371;52.080;5.624;2023-08-30T10:20:19;18.67;;;11.57;;
25449;SDS011;13371;52.080;5.624;2023-08-30T10:22:45;14.45;;;10.13;;
25449;SDS011;13371;52.080;5.624;2023-08-30T10:25:17;19.05;;;11.52;;
25449;SDS011;13371;52.080;5.624;2023-08-30T10:27:46;20.83;;;11.57;;
25449;SDS011;13371;52.080;5.624;2023-08-30T10:30:13;18.23;;;12.18;;
25449;SDS011;13371;52.080;5.624;2023-08-30T10:32:41;19.75;;;14.05;;
25449;SDS011;13371;52.080;5.624;2023-08-30T10:35:09;20.73;;;14.73;;
25449;SDS011;13371;52.080;5.624;2023-08-30T10:37:37;19.27;;;14.77;;
25449;SDS011;13371;52.080;5.624;2023-08-30T10:40:04;20.85;;;14.38;;
25449;SDS011;13371;52.080;5.624;2023-08-30T10:42:31;21.75;;;13.98;;
25449;SDS011;13371;52.080;5.624;2023-08-30T10:45:00;22.40;;;15.52;;
25449;SDS011;13371;52.080;5.624;2023-08-30T10:47:31;21.67;;;15.48;;
25449;SDS011;13371;52.080;5.624;2023-08-30T10:50:02;21.38;;;15.40;;
25449;SDS011;13371;52.080;5.624;2023-08-30T10:52:33;19.08;;;14.45;;
25449;SDS011;13371;52.080;5.624;2023-08-30T10:55:11;16.60;;;13.50;;
25449;SDS011;13371;52.080;5.624;2023-08-30T10:57:45;20.50;;;13.70;;
25449;SDS011;13371;52.080;5.624;2023-08-30T11:02:43;21.77;;;16.27;;
25449;SDS011;13371;52.080;5.624;2023-08-30T11:05:14;24.50;;;18.25;;
25449;SDS011;13371;52.080;5.624;2023-08-30T11:07:44;18.55;;;13.63;;
25449;SDS011;13371;52.080;5.624;2023-08-30T11:10:11;13.18;;;10.98;;
25449;SDS011;13371;52.080;5.624;2023-08-30T11:12:39;12.80;;;8.63;;
25449;SDS011;13371;52.080;5.624;2023-08-30T11:15:06;8.90;;;6.28;;
25449;SDS011;13371;52.080;5.624;2023-08-30T11:17:33;9.48;;;5.70;;
25449;SDS011;13371;52.080;5.624;2023-08-30T11:22:34;13.52;;;6.25;;
25449;SDS011;13371;52.080;5.624;2023-08-30T11:25:04;6.70;;;5.40;;
25449;SDS011;13371;52.080;5.624;2023-08-30T11:27:31;7.22;;;5.13;;
25449;SDS011;13371;52.080;5.624;2023-08-30T11:30:00;8.00;;;5.03;;
25449;SDS011;13371;52.080;5.624;2023-08-30T11:32:28;7.60;;;5.07;;
25449;SDS011;13371;52.080;5.624;2023-08-30T11:34:58;7.82;;;5.15;;
25449;SDS011;13371;52.080;5.624;2023-08-30T11:37:23;9.82;;;4.97;;
25449;SDS011;13371;52.080;5.624;2023-08-30T11:39:52;10.38;;;5.22;;
25449;SDS011;13371;52.080;5.624;2023-08-30T11:42:18;8.48;;;4.57;;
25449;SDS011;13371;52.080;5.624;2023-08-30T11:44:44;8.02;;;4.22;;
25449;SDS011;13371;52.080;5.624;2023-08-30T11:47:10;5.47;;;3.70;;
25449;SDS011;13371;52.080;5.624;2023-08-30T11:49:36;10.40;;;4.00;;
25449;SDS011;13371;52.080;5.624;2023-08-30T11:52:04;7.32;;;3.75;;
25449;SDS011;13371;52.080;5.624;2023-08-30T11:54:30;14.05;;;4.18;;
25449;SDS011;13371;52.080;5.624;2023-08-30T11:56:56;9.25;;;3.90;;
25449;SDS011;13371;52.080;5.624;2023-08-30T11:59:21;8.75;;;3.92;;
25449;SDS011;13371;52.080;5.624;2023-08-30T12:01:48;7.82;;;3.17;;
25449;SDS011;13371;52.080;5.624;2023-08-30T12:04:14;9.45;;;3.53;;
25449;SDS011;13371;52.080;5.624;2023-08-30T12:06:40;12.52;;;3.40;;
25449;SDS011;13371;52.080;5.624;2023-08-30T12:09:05;7.85;;;3.30;;
25449;SDS011;13371;52.080;5.624;2023-08-30T12:11:37;9.82;;;3.20;;
25449;SDS011;13371;52.080;5.624;2023-08-30T12:14:02;6.60;;;3.13;;
25449;SDS011;13371;52.080;5.624;2023-08-30T12:16:28;8.23;;;2.83;;
25449;SDS011;13371;52.080;5.624;2023-08-30T12:18:53;10.90;;;3.17;;
25449;SDS011;13371;52.080;5.624;2023-08-30T12:21:20;7.95;;;2.92;;
25449;SDS011;13371;52.080;5.624;2023-08-30T12:23:45;11.82;;;3.55;;
25449;SDS011;13371;52.080;5.624;2023-08-30T12:26:11;8.25;;;3.25;;
25449;SDS011;13371;52.080;5.624;2023-08-30T12:28:40;8.75;;;3.25;;
25449;SDS011;13371;52.080;5.624;2023-08-30T12:31:09;6.50;;;2.80;;
25449;SDS011;13371;52.080;5.624;2023-08-30T12:33:35;6.75;;;3.08;;
25449;SDS011;13371;52.080;5.624;2023-08-30T12:36:02;10.30;;;3.05;;
25449;SDS011;13371;52.080;5.624;2023-08-30T12:38:28;8.40;;;2.63;;
25449;SDS011;13371;52.080;5.624;2023-08-30T12:40:54;7.13;;;2.60;;
25449;SDS011;13371;52.080;5.624;2023-08-30T12:43:20;7.90;;;2.83;;
25449;SDS011;13371;52.080;5.624;2023-08-30T12:45:47;8.98;;;2.83;;
25449;SDS011;13371;52.080;5.624;2023-08-30T12:48:14;7.72;;;2.47;;
25449;SDS011;13371;52.080;5.624;2023-08-30T12:50:43;7.60;;;2.42;;
25449;SDS011;13371;52.080;5.624;2023-08-30T12:53:09;5.60;;;2.45;;
25449;SDS011;13371;52.080;5.624;2023-08-30T12:55:35;8.18;;;2.50;;
25449;SDS011;13371;52.080;5.624;2023-08-30T12:58:01;8.75;;;2.70;;
25449;SDS011;13371;52.080;5.624;2023-08-30T13:00:28;6.43;;;1.98;;
25449;SDS011;13371;52.080;5.624;2023-08-30T13:02:54;8.00;;;1.98;;
25449;SDS011;13371;52.080;5.624;2023-08-30T13:05:19;10.32;;;2.70;;
25449;SDS011;13371;52.080;5.624;2023-08-30T13:07:46;8.20;;;2.20;;
25449;SDS011;13371;52.080;5.624;2023-08-30T13:10:13;6.65;;;2.35;;
25449;SDS011;13371;52.080;5.624;2023-08-30T13:12:40;7.50;;;2.25;;
25449;SDS011;13371;52.080;5.624;2023-08-30T13:15:05;8.55;;;1.83;;
25449;SDS011;13371;52.080;5.624;2023-08-30T13:17:32;8.65;;;1.63;;
25449;SDS011;13371;52.080;5.624;2023-08-30T13:19:58;3.63;;;1.48;;
25449;SDS011;13371;52.080;5.624;2023-08-30T13:22:24;5.60;;;1.63;;
25449;SDS011;13371;52.080;5.624;2023-08-30T13:24:50;6.90;;;1.88;;
25449;SDS011;13371;52.080;5.624;2023-08-30T13:27:17;4.35;;;1.70;;
25449;SDS011;13371;52.080;5.624;2023-08-30T13:29:43;5.63;;;1.83;;
25449;SDS011;13371;52.080;5.624;2023-08-30T13:32:08;6.97;;;1.38;;
25449;SDS011;13371;52.080;5.624;2023-08-30T13:34:34;5.25;;;1.73;;
25449;SDS011;13371;52.080;5.624;2023-08-30T13:37:00;6.97;;;1.67;;
25449;SDS011;13371;52.080;5.624;2023-08-30T13:39:25;6.32;;;1.70;;
25449;SDS011;13371;52.080;5.624;2023-08-30T13:41:51;10.13;;;2.10;;
25449;SDS011;13371;52.080;5.624;2023-08-30T13:44:17;8.65;;;1.95;;
25449;SDS011;13371;52.080;5.624;2023-08-30T13:46:43;9.68;;;1.60;;
25449;SDS011;13371;52.080;5.624;2023-08-30T13:49:08;7.40;;;1.75;;
25449;SDS011;13371;52.080;5.624;2023-08-30T13:51:34;7.88;;;2.22;;
25449;SDS011;13371;52.080;5.624;2023-08-30T13:54:01;3.55;;;1.45;;
25449;SDS011;13371;52.080;5.624;2023-08-30T13:56:27;7.28;;;1.77;;
25449;SDS011;13371;52.080;5.624;2023-08-30T13:58:52;5.43;;;1.70;;
25449;SDS011;13371;52.080;5.624;2023-08-30T14:01:18;6.18;;;1.50;;
25449;SDS011;13371;52.080;5.624;2023-08-30T14:03:43;8.60;;;2.15;;
25449;SDS011;13371;52.080;5.624;2023-08-30T14:06:09;8.45;;;1.70;;
25449;SDS011;13371;52.080;5.624;2023-08-30T14:08:35;7.63;;;2.08;;
25449;SDS011;13371;52.080;5.624;2023-08-30T14:11:01;5.80;;;1.67;;
25449;SDS011;13371;52.080;5.624;2023-08-30T14:13:26;4.18;;;1.73;;
25449;SDS011;13371;52.080;5.624;2023-08-30T14:15:58;4.38;;;1.30;;
25449;SDS011;13371;52.080;5.624;2023-08-30T14:18:25;8.18;;;1.83;;
25449;SDS011;13371;52.080;5.624;2023-08-30T14:20:54;5.25;;;1.40;;
25449;SDS011;13371;52.080;5.624;2023-08-30T14:23:21;5.72;;;1.88;;
25449;SDS011;13371;52.080;5.624;2023-08-30T14:25:54;6.97;;;2.20;;
25449;SDS011;13371;52.080;5.624;2023-08-30T14:28:21;10.43;;;2.45;;
25449;SDS011;13371;52.080;5.624;2023-08-30T14:30:47;8.18;;;2.13;;
25449;SDS011;13371;52.080;5.624;2023-08-30T14:33:12;7.10;;;1.50;;
25449;SDS011;13371;52.080;5.624;2023-08-30T14:35:40;6.40;;;1.63;;
25449;SDS011;13371;52.080;5.624;2023-08-30T14:38:07;5.45;;;1.60;;
25449;SDS011;13371;52.080;5.624;2023-08-30T14:40:32;5.57;;;1.48;;
25449;SDS011;13371;52.080;5.624;2023-08-30T14:42:58;3.65;;;1.38;;